Terminal Aerodrome Forecast
Issued by NWS

Home | Current Version | Previous Version | Text Only | Print | Product List | Glossary On
Versions: 1 2 3 4 5 6 7 8 9 10 11 12 13 14 15 16 17 18 19 20 21 22
000
FTUS46 KLOX 211700
TAFOXR
TAF
KOXR 211731Z 2118/2218 22006KT P6SM OVC025
     FM212100 27012KT P6SM SCT025
     FM220400 VRB03KT P6SM SCT015
     FM220700 VRB03KT P6SM OVC008=

USA.gov is the U.S. government's official web portal to all federal, state and local government web resources and services.